createdAt,value
2019-05-16T00:00:11.405Z,12.92
2019-05-16T00:01:11.416Z,13.07
2019-05-16T00:03:04.326Z,13.10
2019-05-16T00:04:04.329Z,13.05
2019-05-16T00:05:58.466Z,13.05
2019-05-16T00:06:58.458Z,13.11
2019-05-16T00:08:50.153Z,13.04
2019-05-16T00:09:50.160Z,13.04
2019-05-16T00:11:43.074Z,13.04
2019-05-16T00:12:43.079Z,13.05
2019-05-16T00:14:35.990Z,13.11
2019-05-16T00:15:37.793Z,13.04
2019-05-16T00:17:28.902Z,13.04
2019-05-16T00:18:28.912Z,13.07
2019-05-16T00:20:21.823Z,13.11
2019-05-16T00:21:21.828Z,13.05
2019-05-16T00:23:14.734Z,13.01
2019-05-16T00:24:14.744Z,13.10
2019-05-16T00:26:07.960Z,13.04
2019-05-16T00:27:08.349Z,13.11
2019-05-16T00:29:00.569Z,13.17
2019-05-16T00:30:00.582Z,13.23
2019-05-16T00:31:53.494Z,13.28
2019-05-16T00:32:53.497Z,13.22
2019-05-16T00:34:47.809Z,13.17
2019-05-16T00:35:48.147Z,13.20
2019-05-16T00:37:39.401Z,13.04
2019-05-16T00:38:39.332Z,13.04
2019-05-16T00:40:32.254Z,12.93
2019-05-16T00:41:32.251Z,13.00
2019-05-16T00:43:25.157Z,12.89
2019-05-16T00:44:25.168Z,12.90
2019-05-16T00:46:20.081Z,12.87
2019-05-16T00:47:18.086Z,12.90
2019-05-16T00:49:10.990Z,12.89
2019-05-16T00:50:10.999Z,12.92
2019-05-16T00:52:03.915Z,12.87
2019-05-16T00:53:03.917Z,12.83
2019-05-16T00:54:57.992Z,12.82
2019-05-16T00:55:58.479Z,12.77
2019-05-16T00:57:49.743Z,12.72
2019-05-16T00:58:49.752Z,12.70
2019-05-16T01:00:42.663Z,12.67
2019-05-16T01:01:42.671Z,12.59
2019-05-16T01:03:37.673Z,12.57
2019-05-16T01:04:35.585Z,12.62
2019-05-16T01:06:28.773Z,12.53
2019-05-16T01:07:28.502Z,12.49
2019-05-16T01:09:21.425Z,12.42
2019-05-16T01:10:21.421Z,12.45
2019-05-16T01:12:14.334Z,12.47
2019-05-16T01:13:14.339Z,12.45
2019-05-16T01:15:07.718Z,12.45
2019-05-16T01:16:08.615Z,12.39
2019-05-16T01:18:00.632Z,12.35
2019-05-16T01:19:00.174Z,12.28
2019-05-16T01:20:53.082Z,12.41
2019-05-16T01:21:53.085Z,12.34
2019-05-16T01:23:48.074Z,12.29
2019-05-16T01:24:46.039Z,12.24
2019-05-16T01:26:39.326Z,12.24
2019-05-16T01:27:39.100Z,12.16
2019-05-16T01:29:32.016Z,12.16
2019-05-16T01:30:32.013Z,12.17
2019-05-16T01:32:24.922Z,12.14
2019-05-16T01:33:24.927Z,12.07
2019-05-16T01:35:18.798Z,11.96
2019-05-16T01:36:33.044Z,11.95
2019-05-16T01:38:11.252Z,11.98
2019-05-16T01:39:11.262Z,11.83
2019-05-16T01:41:04.670Z,11.82
2019-05-16T01:42:04.676Z,11.90
2019-05-16T01:43:58.511Z,11.85
2019-05-16T01:44:57.924Z,11.91
2019-05-16T01:46:50.498Z,11.95
2019-05-16T01:47:50.501Z,11.98
2019-05-16T01:49:43.410Z,12.01
2019-05-16T01:50:43.419Z,11.99
2019-05-16T01:52:38.251Z,11.90
2019-05-16T01:53:36.331Z,11.91
2019-05-16T01:55:29.237Z,11.90
2019-05-16T01:56:29.249Z,11.86
2019-05-16T01:58:22.160Z,12.01
2019-05-16T01:59:22.168Z,11.96
2019-05-16T02:01:15.923Z,11.94
2019-05-16T02:02:15.081Z,11.86
2019-05-16T02:04:11.860Z,11.86
2019-05-16T02:05:08.380Z,11.88
2019-05-16T02:07:00.905Z,11.85
2019-05-16T02:08:00.910Z,11.76
2019-05-16T02:09:53.816Z,11.73
2019-05-16T02:10:53.825Z,11.79
2019-05-16T02:12:48.826Z,11.73
2019-05-16T02:13:48.467Z,11.65
2019-05-16T02:15:39.644Z,11.76
2019-05-16T02:16:39.654Z,11.73
2019-05-16T02:18:32.563Z,11.78
2019-05-16T02:19:32.568Z,11.73
2019-05-16T02:21:25.474Z,11.72
2019-05-16T02:22:25.485Z,11.58
2019-05-16T02:24:18.403Z,11.72
2019-05-16T02:25:18.747Z,11.64
2019-05-16T02:27:11.310Z,11.57
2019-05-16T02:28:11.313Z,11.61
2019-05-16T02:30:04.219Z,11.60
2019-05-16T02:31:04.231Z,11.57
2019-05-16T02:32:57.143Z,11.58
2019-05-16T02:33:57.144Z,11.54
2019-05-16T02:35:54.791Z,11.57
2019-05-16T02:37:10.376Z,11.47
2019-05-16T02:38:42.970Z,11.57
2019-05-16T02:39:42.973Z,11.47
2019-05-16T02:41:35.909Z,11.47
2019-05-16T02:42:35.889Z,11.44
2019-05-16T02:44:31.886Z,11.44
2019-05-16T02:45:32.163Z,11.46
2019-05-16T02:47:21.710Z,11.49
2019-05-16T02:48:21.910Z,11.54
2019-05-16T02:50:14.631Z,11.40
2019-05-16T02:51:14.635Z,11.43
2019-05-16T02:53:07.547Z,11.42
2019-05-16T02:54:10.741Z,11.42
2019-05-16T02:56:01.503Z,11.44
2019-05-16T02:57:01.397Z,11.36
2019-05-16T02:58:53.385Z,11.43
2019-05-16T02:59:53.386Z,11.36
2019-05-16T03:01:46.296Z,11.36
2019-05-16T03:02:46.304Z,11.39
2019-05-16T03:04:43.211Z,11.44
2019-05-16T03:05:41.836Z,11.37
2019-05-16T03:07:41.312Z,11.36
2019-05-16T03:08:32.269Z,11.32
2019-05-16T03:10:25.044Z,11.39
2019-05-16T03:11:25.047Z,11.25
2019-05-16T03:13:17.953Z,11.24
2019-05-16T03:14:20.999Z,11.18
2019-05-16T03:16:11.688Z,11.17
2019-05-16T03:17:11.440Z,11.21
2019-05-16T03:19:03.822Z,11.18
2019-05-16T03:20:03.806Z,11.15
2019-05-16T03:21:56.711Z,11.17
2019-05-16T03:22:56.721Z,11.17
2019-05-16T03:24:51.542Z,11.10
2019-05-16T03:25:50.720Z,11.17
2019-05-16T03:27:42.542Z,11.21
2019-05-16T03:28:42.549Z,11.27
2019-05-16T03:30:35.770Z,11.27
2019-05-16T03:31:35.462Z,11.29
2019-05-16T03:33:35.007Z,11.22
2019-05-16T03:34:33.848Z,11.22
2019-05-16T03:36:25.012Z,11.22
2019-05-16T03:37:24.988Z,11.21
2019-05-16T03:39:14.197Z,11.10
2019-05-16T03:40:14.202Z,11.10
2019-05-16T03:42:07.112Z,11.15
2019-05-16T03:43:07.120Z,11.14
2019-05-16T03:45:02.193Z,11.09
2019-05-16T03:46:02.545Z,11.07
2019-05-16T03:47:52.943Z,11.09
2019-05-16T03:48:52.949Z,11.06
2019-05-16T03:50:45.860Z,11.02
2019-05-16T03:51:45.863Z,11.04
2019-05-16T03:53:40.318Z,10.99
2019-05-16T03:54:41.774Z,10.97
2019-05-16T03:56:31.688Z,11.10
2019-05-16T03:57:31.690Z,11.06
2019-05-16T03:59:24.595Z,11.07
2019-05-16T04:00:24.613Z,11.03
2019-05-16T04:02:17.518Z,11.00
2019-05-16T04:03:20.912Z,10.96
2019-05-16T04:05:11.093Z,11.11
2019-05-16T04:06:11.790Z,11.04
2019-05-16T04:08:15.265Z,11.15
2019-05-16T04:09:03.341Z,11.15
2019-05-16T04:10:56.248Z,11.14
2019-05-16T04:11:56.256Z,11.21
2019-05-16T04:13:50.782Z,11.21
2019-05-16T04:14:51.310Z,11.11
2019-05-16T04:16:42.078Z,11.10
2019-05-16T04:17:42.081Z,11.17
2019-05-16T04:19:34.986Z,11.17
2019-05-16T04:20:34.996Z,11.17
2019-05-16T04:22:27.905Z,11.14
2019-05-16T04:23:30.989Z,11.14
2019-05-16T04:25:21.747Z,11.21
2019-05-16T04:26:21.611Z,11.24
2019-05-16T04:28:13.731Z,11.24
2019-05-16T04:29:13.734Z,11.17
2019-05-16T04:31:07.136Z,11.22
2019-05-16T04:32:07.143Z,11.28
2019-05-16T04:34:01.127Z,11.27
2019-05-16T04:35:02.522Z,11.35
2019-05-16T04:36:52.961Z,11.32
2019-05-16T04:37:52.969Z,11.28
2019-05-16T04:39:45.866Z,11.37
2019-05-16T04:40:45.878Z,11.43
2019-05-16T04:42:41.659Z,11.36
2019-05-16T04:43:41.359Z,11.44
2019-05-16T04:45:31.894Z,11.46
2019-05-16T04:46:31.705Z,11.43
2019-05-16T04:48:24.612Z,11.40
2019-05-16T04:49:24.615Z,11.39
2019-05-16T04:51:17.526Z,11.47
2019-05-16T04:52:17.533Z,11.33
2019-05-16T04:54:11.438Z,11.37
2019-05-16T04:55:11.822Z,11.46
2019-05-16T04:57:03.353Z,11.40
2019-05-16T04:58:03.356Z,11.35
2019-05-16T04:59:56.262Z,11.44
2019-05-16T05:00:56.283Z,11.46
2019-05-16T05:02:51.839Z,11.42
2019-05-16T05:04:01.929Z,11.47
2019-05-16T05:05:42.093Z,11.54
2019-05-16T05:06:42.104Z,11.43
2019-05-16T05:08:49.248Z,11.36
2019-05-16T05:09:35.013Z,11.36
2019-05-16T05:11:30.496Z,11.46
2019-05-16T05:12:27.928Z,11.49
2019-05-16T05:14:21.294Z,11.54
2019-05-16T05:15:21.464Z,11.43
2019-05-16T05:17:13.755Z,11.37
2019-05-16T05:18:13.759Z,11.44
2019-05-16T05:20:06.663Z,11.42
2019-05-16T05:21:06.674Z,11.43
2019-05-16T05:23:00.466Z,11.47
2019-05-16T05:24:00.061Z,11.46
2019-05-16T05:25:52.492Z,11.47
2019-05-16T05:26:52.505Z,11.49
2019-05-16T05:28:45.411Z,11.37
2019-05-16T05:29:45.416Z,11.42
2019-05-16T05:31:43.710Z,11.42
2019-05-16T05:32:38.329Z,11.40
2019-05-16T05:34:31.737Z,11.40
2019-05-16T05:35:31.738Z,11.42
2019-05-16T05:37:24.649Z,11.46
2019-05-16T05:38:24.656Z,11.47
2019-05-16T05:40:20.049Z,11.47
2019-05-16T05:41:19.899Z,11.52
2019-05-16T05:43:10.979Z,11.54
2019-05-16T05:44:11.021Z,11.67
2019-05-16T05:46:03.887Z,11.69
2019-05-16T05:47:03.899Z,11.75
2019-05-16T05:48:56.811Z,11.86
2019-05-16T05:49:56.814Z,12.01
2019-05-16T05:51:50.094Z,12.09
2019-05-16T05:52:51.095Z,12.01
2019-05-16T05:54:42.641Z,11.99
2019-05-16T05:55:42.647Z,12.02
2019-05-16T05:57:35.568Z,12.07
2019-05-16T05:58:35.574Z,12.13
2019-05-16T06:00:30.382Z,12.12
2019-05-16T06:01:31.259Z,12.16
2019-05-16T06:03:22.821Z,12.16
2019-05-16T06:04:21.400Z,12.14
2019-05-16T06:06:14.307Z,12.16
2019-05-16T06:07:14.319Z,12.23
2019-05-16T06:09:07.230Z,12.13
2019-05-16T06:10:07.236Z,12.19
2019-05-16T06:12:00.714Z,12.19
2019-05-16T06:13:00.616Z,12.23
2019-05-16T06:14:53.568Z,12.27
2019-05-16T06:15:53.567Z,12.28
2019-05-16T06:17:46.482Z,12.23
2019-05-16T06:18:46.485Z,12.23
2019-05-16T06:20:40.087Z,12.24
2019-05-16T06:21:44.941Z,12.17
2019-05-16T06:23:32.323Z,12.24
2019-05-16T06:24:32.339Z,12.21
2019-05-16T06:26:25.232Z,12.29
2019-05-16T06:27:25.243Z,12.20
2019-05-16T06:29:20.289Z,12.20
2019-05-16T06:30:20.638Z,12.14
2019-05-16T06:32:11.080Z,12.29
2019-05-16T06:33:11.079Z,12.45
2019-05-16T06:35:04.020Z,12.56
2019-05-16T06:36:04.028Z,12.75
2019-05-16T06:37:56.940Z,12.82
2019-05-16T06:38:56.945Z,12.87
2019-05-16T06:40:52.249Z,12.93
2019-05-16T06:41:50.841Z,12.90
2019-05-16T06:43:42.786Z,12.90
2019-05-16T06:44:42.782Z,12.85
2019-05-16T06:46:52.519Z,12.89
2019-05-16T06:47:35.701Z,12.86
2019-05-16T06:49:30.403Z,12.83
2019-05-16T06:50:29.774Z,12.83
2019-05-16T06:52:21.532Z,12.83
2019-05-16T06:53:21.541Z,12.70
2019-05-16T06:55:14.451Z,12.74
2019-05-16T06:56:14.459Z,12.60
2019-05-16T06:58:07.385Z,12.62
2019-05-16T06:59:07.377Z,12.62
2019-05-16T07:01:03.408Z,12.59
2019-05-16T07:02:00.539Z,12.64
2019-05-16T07:03:53.206Z,12.42
2019-05-16T07:04:53.209Z,12.42
2019-05-16T07:06:58.151Z,12.42
2019-05-16T07:07:46.126Z,12.39
2019-05-16T07:09:41.819Z,12.62
2019-05-16T07:10:39.742Z,12.67
2019-05-16T07:12:34.089Z,12.85
2019-05-16T07:13:31.959Z,12.96
2019-05-16T07:15:24.873Z,13.14
2019-05-16T07:16:24.875Z,13.22
2019-05-16T07:18:20.443Z,13.19
2019-05-16T07:19:17.793Z,13.20
2019-05-16T07:21:11.068Z,13.33
2019-05-16T07:22:11.160Z,13.28
2019-05-16T07:24:03.625Z,13.30
2019-05-16T07:25:03.635Z,13.32
2019-05-16T07:26:56.531Z,13.41
2019-05-16T07:27:56.564Z,13.32
2019-05-16T07:29:50.812Z,13.28
2019-05-16T07:30:50.065Z,13.30
2019-05-16T07:32:42.374Z,13.45
2019-05-16T07:33:42.383Z,13.46
2019-05-16T07:35:35.293Z,13.29
2019-05-16T07:36:35.300Z,13.17
2019-05-16T07:38:30.662Z,13.04
2019-05-16T07:39:30.514Z,13.15
2019-05-16T07:41:21.144Z,13.19
2019-05-16T07:42:21.140Z,13.12
2019-05-16T07:44:14.062Z,13.17
2019-05-16T07:45:14.064Z,13.19
2019-05-16T07:47:06.975Z,13.11
2019-05-16T07:48:06.985Z,13.22
2019-05-16T07:49:59.895Z,13.15
2019-05-16T07:51:00.592Z,13.30
2019-05-16T07:52:52.811Z,13.28
2019-05-16T07:53:52.822Z,13.44
2019-05-16T07:55:45.735Z,13.41
2019-05-16T07:56:45.739Z,13.29
2019-05-16T07:58:40.926Z,13.36
2019-05-16T07:59:40.474Z,13.33
2019-05-16T08:01:31.571Z,13.22
2019-05-16T08:02:31.578Z,13.26
2019-05-16T08:04:24.508Z,13.10
2019-05-16T08:05:24.495Z,13.00
2019-05-16T08:07:19.882Z,12.89
2019-05-16T08:08:23.244Z,13.01
2019-05-16T08:10:10.833Z,13.01
2019-05-16T08:11:12.236Z,13.08
2019-05-16T08:13:03.637Z,13.14
2019-05-16T08:14:03.248Z,13.23
2019-05-16T08:15:56.159Z,13.26
2019-05-16T08:16:56.167Z,13.30
2019-05-16T08:18:50.701Z,13.44
2019-05-16T08:19:50.636Z,13.55
2019-05-16T08:21:41.998Z,13.73
2019-05-16T08:22:42.027Z,13.73
2019-05-16T08:24:36.199Z,13.81
2019-05-16T08:25:34.921Z,13.87
2019-05-16T08:27:30.470Z,13.92
2019-05-16T08:28:30.557Z,13.84
2019-05-16T08:30:21.250Z,13.95
2019-05-16T08:31:21.393Z,13.95
2019-05-16T08:33:13.811Z,14.09
2019-05-16T08:34:13.681Z,14.24
2019-05-16T08:37:30.680Z,14.35
2019-05-16T08:39:01.133Z,14.39
2019-05-16T08:41:52.437Z,14.51
2019-05-16T08:42:52.451Z,14.47
2019-05-16T08:44:45.848Z,14.45
2019-05-16T08:45:45.862Z,14.68
2019-05-16T08:47:41.889Z,14.73
2019-05-16T08:48:41.979Z,14.78
2019-05-16T08:50:08.651Z,14.58
2019-05-16T08:50:35.094Z,14.99
2019-05-16T08:51:33.337Z,14.94
2019-05-16T08:53:24.624Z,14.98
2019-05-16T08:54:24.634Z,14.88
2019-05-16T08:56:17.553Z,14.99
2019-05-16T08:57:27.562Z,14.96
2019-05-16T08:59:13.512Z,14.91
2019-05-16T09:00:14.576Z,14.69
2019-05-16T09:02:03.996Z,14.47
2019-05-16T09:03:03.966Z,14.43
2019-05-16T09:04:56.823Z,14.17
2019-05-16T09:05:56.827Z,14.22
2019-05-16T09:07:49.779Z,14.12
2019-05-16T09:08:49.752Z,14.09
2019-05-16T09:10:38.941Z,14.37
2019-05-16T09:10:57.959Z,13.99
2019-05-16T09:11:49.534Z,14.06
2019-05-16T09:13:36.986Z,14.06
2019-05-16T09:14:38.955Z,14.07
2019-05-16T09:16:28.506Z,13.96
2019-05-16T09:17:28.512Z,14.09
2019-05-16T09:19:21.426Z,13.96
2019-05-16T09:20:21.434Z,13.91
2019-05-16T09:22:14.347Z,13.75
2019-05-16T09:23:14.355Z,13.77
2019-05-16T09:25:08.167Z,13.82
2019-05-16T09:26:07.627Z,13.78
2019-05-16T09:28:00.288Z,13.77
2019-05-16T09:29:00.196Z,13.81
2019-05-16T09:30:53.109Z,13.82
2019-05-16T09:32:07.969Z,13.75
2019-05-16T09:33:47.369Z,13.71
2019-05-16T09:34:47.920Z,13.60
2019-05-16T09:36:38.955Z,13.73
2019-05-16T09:37:38.959Z,13.64
2019-05-16T09:39:31.866Z,13.81
2019-05-16T09:40:31.878Z,13.78
2019-05-16T09:42:27.482Z,13.78
2019-05-16T09:43:28.070Z,13.88
2019-05-16T09:45:18.218Z,13.89
2019-05-16T09:46:18.211Z,13.92
2019-05-16T09:48:11.125Z,13.82
2019-05-16T09:49:19.566Z,13.79
2019-05-16T09:51:06.496Z,13.63
2019-05-16T09:52:04.049Z,13.73
2019-05-16T09:53:56.963Z,13.62
2019-05-16T09:54:57.807Z,13.63
2019-05-16T09:56:49.891Z,13.60
2019-05-16T09:57:49.889Z,13.69
2019-05-16T09:59:42.803Z,13.55
2019-05-16T10:00:42.810Z,13.60
2019-05-16T10:02:36.759Z,13.57
2019-05-16T10:03:37.260Z,13.54
2019-05-16T10:05:28.643Z,13.55
2019-05-16T10:06:28.648Z,13.55
2019-05-16T10:08:21.564Z,13.59
2019-05-16T10:09:21.570Z,13.64
2019-05-16T10:11:17.845Z,13.77
2019-05-16T10:12:16.329Z,13.69
2019-05-16T10:14:07.535Z,13.71
2019-05-16T10:15:07.716Z,13.82
2019-05-16T10:17:00.323Z,14.02
2019-05-16T10:18:00.331Z,14.18
2019-05-16T10:19:53.236Z,14.42
2019-05-16T10:20:53.247Z,14.45
2019-05-16T10:22:46.915Z,14.45
2019-05-16T10:23:46.983Z,14.45
2019-05-16T10:25:39.080Z,14.51
2019-05-16T10:26:39.091Z,14.37
2019-05-16T10:28:32.003Z,14.57
2019-05-16T10:29:32.012Z,14.65
2019-05-16T10:31:41.007Z,14.61
2019-05-16T10:32:27.231Z,14.64
2019-05-16T10:34:17.854Z,14.70
2019-05-16T10:35:17.861Z,14.60
2019-05-16T10:37:10.774Z,14.62
2019-05-16T10:38:10.782Z,14.61
2019-05-16T10:40:04.197Z,14.32
2019-05-16T10:41:04.207Z,14.35
2019-05-16T10:42:57.834Z,14.22
2019-05-16T10:43:57.127Z,14.27
2019-05-16T10:45:53.534Z,14.15
2019-05-16T10:46:51.086Z,14.20
2019-05-16T10:48:43.974Z,14.17
2019-05-16T10:49:43.978Z,14.18
2019-05-16T10:51:37.721Z,14.12
2019-05-16T10:52:36.997Z,14.14
2019-05-16T10:54:29.875Z,14.15
2019-05-16T10:55:29.826Z,14.14
2019-05-16T10:57:22.831Z,14.21
2019-05-16T10:58:35.322Z,14.24
2019-05-16T11:00:36.823Z,14.22
2019-05-16T11:01:27.080Z,14.27
2019-05-16T11:03:08.585Z,14.36
2019-05-16T11:04:08.590Z,14.28
2019-05-16T11:06:05.823Z,14.28
2019-05-16T11:07:01.515Z,14.21
2019-05-16T11:08:56.998Z,14.35
2019-05-16T11:09:59.312Z,14.28
2019-05-16T11:11:47.727Z,14.29
2019-05-16T11:12:54.223Z,14.35
2019-05-16T11:14:40.280Z,14.40
2019-05-16T11:15:40.281Z,14.47
2019-05-16T11:17:33.191Z,14.65
2019-05-16T11:18:33.204Z,14.61
2019-05-16T11:20:26.805Z,14.89
2019-05-16T11:21:26.762Z,14.98
2019-05-16T11:23:23.288Z,15.01
2019-05-16T11:24:19.090Z,14.88
2019-05-16T11:26:11.971Z,14.73
2019-05-16T11:27:11.972Z,14.78
2019-05-16T11:29:07.291Z,14.83
2019-05-16T11:30:07.391Z,14.88
2019-05-16T11:31:57.807Z,14.95
2019-05-16T11:32:57.811Z,15.09
2019-05-16T11:34:50.732Z,15.16
2019-05-16T11:35:50.755Z,15.20
2019-05-16T11:37:43.673Z,15.19
2019-05-16T11:38:43.666Z,15.31
2019-05-16T11:40:36.580Z,15.25
2019-05-16T11:41:36.589Z,15.34
2019-05-16T11:43:29.515Z,15.34
2019-05-16T11:44:29.519Z,15.41
2019-05-16T11:46:22.432Z,15.59
2019-05-16T11:47:22.437Z,15.56
2019-05-16T11:49:16.648Z,15.43
2019-05-16T11:50:17.570Z,15.51
2019-05-16T11:52:08.277Z,15.36
2019-05-16T11:53:08.287Z,15.25
2019-05-16T11:55:01.242Z,15.19
2019-05-16T11:56:02.168Z,15.11
2019-05-16T11:57:54.126Z,15.01
2019-05-16T11:58:56.879Z,14.92
2019-05-16T12:00:48.267Z,14.92
2019-05-16T12:01:47.645Z,14.96
2019-05-16T12:03:39.982Z,14.95
2019-05-16T12:04:39.993Z,15.07
2019-05-16T12:06:32.913Z,15.20
2019-05-16T12:07:34.676Z,15.20
2019-05-16T12:10:27.018Z,15.34
2019-05-16T12:12:20.881Z,15.38
2019-05-16T12:13:27.703Z,15.38
2019-05-16T12:15:11.718Z,15.35
2019-05-16T12:16:14.808Z,15.32
2019-05-16T12:18:05.880Z,15.23
2019-05-16T12:19:06.912Z,15.20
2019-05-16T12:20:57.571Z,15.16
2019-05-16T12:21:57.579Z,15.28
2019-05-16T12:23:50.498Z,15.13
2019-05-16T12:24:50.511Z,15.13
2019-05-16T12:26:43.434Z,15.09
2019-05-16T12:27:43.434Z,15.10
2019-05-16T12:29:37.278Z,15.01
2019-05-16T12:30:37.713Z,14.95
2019-05-16T12:32:29.272Z,14.91
2019-05-16T12:33:29.283Z,15.13
2019-05-16T12:35:22.202Z,15.07
2019-05-16T12:36:22.209Z,15.17
2019-05-16T12:38:16.985Z,15.02
2019-05-16T12:39:17.211Z,14.84
2019-05-16T12:41:08.057Z,14.96
2019-05-16T12:42:08.562Z,14.95
2019-05-16T12:44:00.974Z,14.81
2019-05-16T12:45:00.992Z,14.73
2019-05-16T12:46:53.903Z,14.72
2019-05-16T12:47:53.909Z,14.65
2019-05-16T12:49:47.265Z,14.75
2019-05-16T12:50:48.054Z,14.65
2019-05-16T12:52:39.762Z,14.65
2019-05-16T12:53:39.769Z,14.65
2019-05-16T12:55:32.683Z,14.62
2019-05-16T12:56:32.692Z,14.68
2019-05-16T12:58:37.215Z,14.62
2019-05-16T12:59:26.795Z,14.68
2019-05-16T13:01:20.712Z,14.68
2019-05-16T13:02:21.663Z,14.80
2019-05-16T13:04:12.634Z,14.91
2019-05-16T13:05:11.463Z,14.98
2019-05-16T13:07:08.864Z,14.92
2019-05-16T13:08:04.392Z,15.11
2019-05-16T13:09:57.296Z,15.13
2019-05-16T13:10:57.927Z,15.10
2019-05-16T13:12:50.250Z,15.17
2019-05-16T13:14:02.523Z,15.13
2019-05-16T13:15:43.172Z,15.17
2019-05-16T13:16:43.185Z,15.09
2019-05-16T13:18:36.985Z,14.91
2019-05-16T13:19:43.298Z,14.91
2019-05-16T13:21:29.023Z,14.61
2019-05-16T13:22:29.062Z,14.47
2019-05-16T13:24:22.127Z,14.29
2019-05-16T13:25:22.140Z,14.43
2019-05-16T13:27:21.964Z,14.42
2019-05-16T13:28:15.062Z,14.32
2019-05-16T13:30:07.980Z,14.24
2019-05-16T13:31:08.098Z,14.17
2019-05-16T13:33:00.953Z,14.09
2019-05-16T13:34:00.911Z,14.07
2019-05-16T13:35:53.819Z,14.02
2019-05-16T13:36:53.860Z,13.89
2019-05-16T13:38:48.173Z,13.97
2019-05-16T13:39:47.649Z,13.92
2019-05-16T13:41:39.669Z,13.75
2019-05-16T13:42:39.672Z,13.79
2019-05-16T13:44:32.598Z,13.75
2019-05-16T13:45:32.594Z,13.67
2019-05-16T13:47:26.796Z,13.52
2019-05-16T13:48:26.791Z,13.59
2019-05-16T13:50:18.441Z,13.70
2019-05-16T13:51:19.176Z,13.64
2019-05-16T13:53:11.348Z,13.57
2019-05-16T13:54:11.354Z,13.54
2019-05-16T13:56:07.103Z,13.42
2019-05-16T13:57:06.758Z,13.42
2019-05-16T13:58:57.196Z,13.45
2019-05-16T13:59:57.194Z,13.44
2019-05-16T14:01:50.121Z,13.38
2019-05-16T14:02:50.115Z,13.44
2019-05-16T14:04:43.020Z,13.45
2019-05-16T14:05:43.032Z,13.44
2019-05-16T14:07:37.487Z,13.55
2019-05-16T14:08:37.368Z,13.55
2019-05-16T14:10:29.986Z,13.41
2019-05-16T14:11:29.031Z,13.51
2019-05-16T14:13:22.441Z,13.39
2019-05-16T14:14:34.839Z,13.39
2019-05-16T14:16:17.775Z,13.42
2019-05-16T14:17:17.771Z,13.29
2019-05-16T14:19:08.283Z,13.19
2019-05-16T14:20:14.420Z,13.20
2019-05-16T14:22:01.198Z,13.22
2019-05-16T14:23:01.889Z,13.19
2019-05-16T14:24:54.123Z,13.15
2019-05-16T14:25:54.131Z,13.19
2019-05-16T14:27:47.584Z,13.19
2019-05-16T14:28:48.799Z,13.23
2019-05-16T14:30:39.960Z,13.22
2019-05-16T14:31:39.978Z,13.23
2019-05-16T14:33:32.890Z,13.22
2019-05-16T14:34:32.892Z,13.29
2019-05-16T14:36:27.821Z,13.30
2019-05-16T14:37:26.867Z,13.28
2019-05-16T14:39:19.791Z,13.26
2019-05-16T14:40:18.748Z,13.19
2019-05-16T14:42:11.657Z,13.22
2019-05-16T14:43:11.665Z,13.17
2019-05-16T14:45:11.509Z,13.08
2019-05-16T14:46:08.952Z,12.92
2019-05-16T14:47:58.514Z,12.96
2019-05-16T14:48:58.508Z,13.05
2019-05-16T14:50:51.911Z,13.00
2019-05-16T14:51:51.931Z,12.93
2019-05-16T14:53:46.896Z,12.96
2019-05-16T14:54:46.866Z,13.03
2019-05-16T14:56:38.686Z,13.01
2019-05-16T14:57:37.762Z,12.95
2019-05-16T14:59:30.910Z,12.82
2019-05-16T15:00:30.683Z,12.85
2019-05-16T15:02:23.592Z,12.87
2019-05-16T15:03:23.595Z,12.82
2019-05-16T15:05:16.509Z,12.87
2019-05-16T15:06:18.275Z,12.90
2019-05-16T15:08:09.451Z,12.92
2019-05-16T15:09:09.441Z,12.90
2019-05-16T15:11:02.358Z,13.01
2019-05-16T15:12:02.349Z,12.93
2019-05-16T15:13:57.438Z,12.93
2019-05-16T15:14:57.283Z,12.87
2019-05-16T15:16:51.751Z,12.75
2019-05-16T15:17:48.678Z,12.72
2019-05-16T15:19:41.591Z,12.68
2019-05-16T15:20:41.594Z,12.70
2019-05-16T15:22:34.503Z,12.62
2019-05-16T15:23:34.513Z,12.65
2019-05-16T15:25:27.438Z,12.72
2019-05-16T15:26:27.436Z,12.72
2019-05-16T15:28:20.367Z,12.78
2019-05-16T15:29:20.350Z,12.78
2019-05-16T15:31:13.260Z,12.77
2019-05-16T15:32:13.268Z,12.75
2019-05-16T15:34:06.211Z,12.68
2019-05-16T15:35:07.516Z,12.71
2019-05-16T15:37:00.109Z,12.85
2019-05-16T15:37:59.146Z,12.75
2019-05-16T15:39:54.169Z,12.75
2019-05-16T15:40:52.049Z,12.79
2019-05-16T15:42:44.953Z,12.70
2019-05-16T15:43:44.962Z,12.68
2019-05-16T15:45:42.601Z,12.59
2019-05-16T15:46:37.890Z,12.59
2019-05-16T15:48:30.790Z,12.68
2019-05-16T15:49:30.806Z,12.64
2019-05-16T15:51:23.727Z,12.57
2019-05-16T15:52:23.756Z,12.64
2019-05-16T15:54:17.957Z,12.67
2019-05-16T15:55:17.918Z,12.65
2019-05-16T15:57:09.559Z,12.64
2019-05-16T15:58:10.409Z,12.65
2019-05-16T16:00:02.500Z,12.65
2019-05-16T16:01:02.490Z,12.62
2019-05-16T16:02:55.411Z,12.64
2019-05-16T16:03:55.404Z,12.60
2019-05-16T16:05:48.316Z,12.52
2019-05-16T16:06:48.319Z,12.45
2019-05-16T16:08:41.230Z,12.29
2019-05-16T16:09:41.237Z,12.34
2019-05-16T16:11:34.161Z,12.29
2019-05-16T16:12:34.179Z,12.34
2019-05-16T16:14:27.574Z,12.34
2019-05-16T16:15:28.065Z,12.34
2019-05-16T16:17:19.974Z,12.34
2019-05-16T16:18:21.841Z,12.27
2019-05-16T16:20:12.930Z,12.34
2019-05-16T16:21:12.934Z,12.32
2019-05-16T16:23:06.766Z,12.35
2019-05-16T16:24:09.145Z,12.28
2019-05-16T16:25:59.803Z,12.49
2019-05-16T16:26:58.773Z,12.45
2019-05-16T16:28:51.690Z,12.32
2019-05-16T16:29:51.683Z,12.38
2019-05-16T16:31:44.631Z,12.28
2019-05-16T16:32:44.637Z,12.42
2019-05-16T16:34:37.575Z,12.45
2019-05-16T16:35:38.065Z,12.46
2019-05-16T16:37:30.462Z,12.32
2019-05-16T16:38:30.468Z,12.29
2019-05-16T16:40:23.382Z,12.31
2019-05-16T16:41:23.387Z,12.45
2019-05-16T16:43:16.295Z,12.29
2019-05-16T16:44:17.464Z,12.39
2019-05-16T16:46:13.385Z,12.41
2019-05-16T16:47:09.218Z,12.37
2019-05-16T16:49:02.132Z,12.45
2019-05-16T16:50:02.140Z,12.49
2019-05-16T16:51:57.234Z,12.54
2019-05-16T16:52:56.579Z,12.50
2019-05-16T16:54:47.968Z,12.54
2019-05-16T16:55:47.963Z,12.57
2019-05-16T16:57:40.871Z,12.59
2019-05-16T16:58:40.880Z,12.62
2019-05-16T17:00:33.792Z,12.57
2019-05-16T17:01:33.795Z,12.56
2019-05-16T17:03:27.242Z,12.65
2019-05-16T17:04:26.806Z,12.64
2019-05-16T17:06:19.627Z,12.68
2019-05-16T17:07:19.628Z,12.65
2019-05-16T17:09:12.534Z,12.68
2019-05-16T17:10:12.544Z,12.72
2019-05-16T17:12:06.677Z,12.70
2019-05-16T17:13:06.785Z,12.77
2019-05-16T17:14:58.373Z,12.77
2019-05-16T17:15:58.402Z,12.79
2019-05-16T17:17:51.314Z,12.77
2019-05-16T17:18:51.317Z,12.74
2019-05-16T17:20:44.229Z,12.78
2019-05-16T17:21:55.401Z,12.77
2019-05-16T17:23:37.221Z,12.77
2019-05-16T17:24:37.149Z,12.77
2019-05-16T17:26:30.064Z,12.82
2019-05-16T17:27:30.066Z,12.79
2019-05-16T17:29:22.981Z,12.77
2019-05-16T17:30:22.981Z,12.82
2019-05-16T17:32:16.688Z,12.79
2019-05-16T17:33:18.233Z,12.74
2019-05-16T17:35:08.821Z,12.74
2019-05-16T17:36:09.499Z,12.82
2019-05-16T17:38:01.734Z,12.72
2019-05-16T17:39:01.743Z,12.74
2019-05-16T17:40:56.820Z,12.86
2019-05-16T17:41:57.730Z,12.82
2019-05-16T17:43:47.565Z,12.86
2019-05-16T17:44:47.575Z,12.86
2019-05-16T17:46:41.020Z,12.86
2019-05-16T17:47:40.493Z,12.83
2019-05-16T17:49:33.401Z,12.95
2019-05-16T17:50:33.412Z,12.86
2019-05-16T17:52:27.357Z,12.89
2019-05-16T17:53:26.732Z,12.93
2019-05-16T17:55:19.239Z,12.93
2019-05-16T17:56:19.249Z,12.92
2019-05-16T17:58:12.164Z,13.00
2019-05-16T17:59:12.196Z,12.97
2019-05-16T18:01:06.797Z,12.97
2019-05-16T18:02:06.493Z,12.93
2019-05-16T18:03:58.000Z,12.90
2019-05-16T18:04:58.007Z,12.93
2019-05-16T18:06:50.920Z,12.87
2019-05-16T18:07:50.924Z,12.86
2019-05-16T18:09:43.848Z,12.90
2019-05-16T18:10:43.856Z,12.90
2019-05-16T18:12:37.344Z,12.90
2019-05-16T18:13:37.216Z,12.87
2019-05-16T18:15:29.685Z,12.87
2019-05-16T18:16:29.695Z,12.87
2019-05-16T18:18:22.608Z,12.82
2019-05-16T18:19:22.613Z,12.78
2019-05-16T18:21:16.973Z,12.68
2019-05-16T18:22:15.530Z,12.70
2019-05-16T18:24:08.444Z,12.64
2019-05-16T18:25:08.461Z,12.62
2019-05-16T18:27:01.380Z,12.60
2019-05-16T18:28:01.365Z,12.59
2019-05-16T18:29:54.279Z,12.62
2019-05-16T18:30:56.500Z,12.60
2019-05-16T18:32:47.195Z,12.59
2019-05-16T18:33:47.201Z,12.50